Sektagli, Russia
Current Conditions -  °F | °C
As of 4:00 PM on Friday 28 Nov 2014 (Local Time) from UHBB Reporting Station
Clear Clear  
Wind Chill: -5°   Ceiling: Unl
Heat Index:   Visibility: 6mi
Dew Point:   Wind: 7mph
Humidity: 79%   Direction: 150°SSE
Pressure: 30.21"   Gusts: NA
Location:  50.42°N, 131°E
Report Text: UHBB 280600Z 15003MPS 120V180 CAVOK M14/M17 Q1023 NOSIG RMKQFE750/1000 36410250
Loading
Personal Weather Stations






























Interactive Weather Map New forecast layout! Learn more

10-Day Weather Forecast

Advertisements
Track Severe Weather on mobile